San Francisco, CA (94122)

10:20 AM PDT on October 31, 2014 (GMT -0700)
Outer Sunset | Change Station
CLOSE
Current Station
Personal Weather Station
Location: San Francisco, CA
Elevation: 154 ft
Nearby Weather Stations

Elev 154 ft 37.76 °N, 122.50 °W | Updated 5 seconds ago

Rain
Rain
61.1 °F
Feels Like 61.1 °F
N
7.0
Wind Variable Wind from South
Gusts 11.0 mph

Today
High -- | Low -- °F
--% Chance of Precip.
Yesterday
High -- | Low -- °F
Precip. -- in
7:34 AM 6:12 PM
First Quarter, 57% visible
Pressure 29.88 in
Visibility 8.0 miles
Clouds Few 1200 ft
Scattered Clouds 2300 ft
Overcast 6500 ft
Dew Point 60 °F
Humidity 97%
Rainfall 0.09 in
Snow Depth Not available.
UV 1 out of 12
Pollen .50 out of 12
Air Quality Not available.
Flu Activity Not available.
METAR KSFO 311656Z 16010KT 8SM -RA FEW012 SCT023 OVC065 17/15 A2988 RMK AO2 RAB02 SLP116 P0005 T01670150

More Conditions Fewer Conditions

Pressure 29.88 in
Visibility 8.0 miles
Clouds Few 1200 ft
Scattered Clouds 2300 ft
Overcast 6500 ft
Dew Point 60 °F
Humidity 97%
Rainfall 0.09 in
Snow Depth Not available.
UV 1 out of 12
Pollen .50 out of 12
Air Quality Not available.
Flu Activity Not available.
METAR KSFO 311656Z 16010KT 8SM -RA FEW012 SCT023 OVC065 17/15 A2988 RMK AO2 RAB02 SLP116 P0005 T01670150

More Conditions Fewer Conditions

10-Day Weather Forecast

Almanac

Astronomy

Oct. 31, 2014 Rise Set
Actual Time
Civil Twilight
Nautical Twilight
Astronomical Twilight
Moon
Length of Visible Light
Length of Day
Tomorrow will be .
, % of the Moon is Illuminated

Today's Extremes

State Highs State Lows

Community

WunderPhotos

Upload Photos

1,766,669 photos uploaded!

WunderBlogs® & News

Nearby

Air Quality

  Air Quality AQ Index Pollutant
Not available.

Snow Depth

Station Depth Elevation

Earthquake Activity

City Distance Mag. Time & Date
Minimum magnitude displayed is 2.5.

Coastal Water Temperatures

Place Temperature

Nearby Weather Stations